sensor_id;sensor_type;location;lat;lon;timestamp;pressure;altitude;pressure_sealevel;temperature;humidity
59274;BME280;45044;41.572;24.730;2023-08-30T00:01:11;90638.41;;;15.82;100.00
59274;BME280;45044;41.572;24.730;2023-08-30T00:03:38;90643.41;;;15.80;100.00
59274;BME280;45044;41.572;24.730;2023-08-30T00:06:06;90645.09;;;15.87;100.00
59274;BME280;45044;41.572;24.730;2023-08-30T00:08:34;90633.66;;;15.77;100.00
59274;BME280;45044;41.572;24.730;2023-08-30T00:11:01;90626.44;;;15.77;100.00
59274;BME280;45044;41.572;24.730;2023-08-30T00:13:31;90632.75;;;15.41;100.00
59274;BME280;45044;41.572;24.730;2023-08-30T00:15:59;90628.16;;;15.41;100.00
59274;BME280;45044;41.572;24.730;2023-08-30T00:18:26;90625.31;;;15.49;100.00
59274;BME280;45044;41.572;24.730;2023-08-30T00:20:53;90628.09;;;15.58;100.00
59274;BME280;45044;41.572;24.730;2023-08-30T00:23:20;90626.53;;;15.61;100.00
59274;BME280;45044;41.572;24.730;2023-08-30T00:25:47;90628.44;;;15.60;100.00
59274;BME280;45044;41.572;24.730;2023-08-30T00:28:13;90632.06;;;15.66;100.00
59274;BME280;45044;41.572;24.730;2023-08-30T00:30:40;90629.69;;;15.68;100.00
59274;BME280;45044;41.572;24.730;2023-08-30T00:33:07;90617.94;;;15.56;100.00
59274;BME280;45044;41.572;24.730;2023-08-30T00:35:34;90623.13;;;15.60;100.00
59274;BME280;45044;41.572;24.730;2023-08-30T00:38:01;90612.97;;;15.59;100.00
59274;BME280;45044;41.572;24.730;2023-08-30T00:40:28;90617.19;;;15.56;100.00
59274;BME280;45044;41.572;24.730;2023-08-30T00:42:56;90624.50;;;15.65;100.00
59274;BME280;45044;41.572;24.730;2023-08-30T00:45:23;90627.16;;;15.52;100.00
59274;BME280;45044;41.572;24.730;2023-08-30T00:47:50;90622.88;;;15.41;100.00
59274;BME280;45044;41.572;24.730;2023-08-30T00:50:17;90630.31;;;15.47;100.00
59274;BME280;45044;41.572;24.730;2023-08-30T00:52:44;90626.69;;;15.40;100.00
59274;BME280;45044;41.572;24.730;2023-08-30T00:55:11;90622.66;;;15.49;100.00
59274;BME280;45044;41.572;24.730;2023-08-30T00:57:38;90625.31;;;15.49;100.00
59274;BME280;45044;41.572;24.730;2023-08-30T01:00:06;90620.53;;;15.43;100.00
59274;BME280;45044;41.572;24.730;2023-08-30T01:02:34;90619.19;;;15.09;100.00
59274;BME280;45044;41.572;24.730;2023-08-30T01:05:02;90614.16;;;15.28;100.00
59274;BME280;45044;41.572;24.730;2023-08-30T01:07:29;90619.78;;;15.30;100.00
59274;BME280;45044;41.572;24.730;2023-08-30T01:09:57;90618.84;;;15.37;100.00
59274;BME280;45044;41.572;24.730;2023-08-30T01:12:30;90628.81;;;15.45;100.00
59274;BME280;45044;41.572;24.730;2023-08-30T01:15:18;90628.69;;;15.36;100.00
59274;BME280;45044;41.572;24.730;2023-08-30T01:17:47;90622.34;;;15.33;100.00
59274;BME280;45044;41.572;24.730;2023-08-30T01:20:16;90622.00;;;15.02;100.00
59274;BME280;45044;41.572;24.730;2023-08-30T01:22:57;90622.66;;;15.06;100.00
59274;BME280;45044;41.572;24.730;2023-08-30T01:28:08;90622.09;;;15.28;100.00
59274;BME280;45044;41.572;24.730;2023-08-30T01:30:37;90622.66;;;15.06;100.00
59274;BME280;45044;41.572;24.730;2023-08-30T01:33:07;90620.56;;;14.84;100.00
59274;BME280;45044;41.572;24.730;2023-08-30T01:35:35;90617.88;;;15.01;100.00
59274;BME280;45044;41.572;24.730;2023-08-30T01:38:04;90622.25;;;15.07;100.00
59274;BME280;45044;41.572;24.730;2023-08-30T01:40:42;90623.09;;;15.04;100.00
59274;BME280;45044;41.572;24.730;2023-08-30T01:43:10;90626.22;;;15.29;100.00
59274;BME280;45044;41.572;24.730;2023-08-30T01:45:42;90623.34;;;15.23;100.00
59274;BME280;45044;41.572;24.730;2023-08-30T01:48:16;90623.31;;;15.10;100.00
59274;BME280;45044;41.572;24.730;2023-08-30T01:50:45;90622.53;;;15.26;100.00
59274;BME280;45044;41.572;24.730;2023-08-30T01:53:13;90619.47;;;15.28;100.00
59274;BME280;45044;41.572;24.730;2023-08-30T01:55:40;90613.53;;;15.37;100.00
59274;BME280;45044;41.572;24.730;2023-08-30T01:58:08;90622.34;;;15.33;100.00
59274;BME280;45044;41.572;24.730;2023-08-30T02:00:36;90615.13;;;15.34;100.00
59274;BME280;45044;41.572;24.730;2023-08-30T02:03:12;90613.31;;;15.31;100.00
59274;BME280;45044;41.572;24.730;2023-08-30T02:05:57;90608.53;;;15.26;100.00
59274;BME280;45044;41.572;24.730;2023-08-30T02:08:38;90602.81;;;15.27;100.00
59274;BME280;45044;41.572;24.730;2023-08-30T02:11:13;90595.41;;;15.22;100.00
59274;BME280;45044;41.572;24.730;2023-08-30T02:13:43;90597.81;;;15.16;100.00
59274;BME280;45044;41.572;24.730;2023-08-30T02:16:12;90591.78;;;15.16;100.00
59274;BME280;45044;41.572;24.730;2023-08-30T02:18:40;90586.31;;;14.93;100.00
59274;BME280;45044;41.572;24.730;2023-08-30T02:21:08;90586.50;;;14.86;100.00
59274;BME280;45044;41.572;24.730;2023-08-30T02:23:34;90591.78;;;14.86;100.00
59274;BME280;45044;41.572;24.730;2023-08-30T02:26:01;90587.28;;;15.00;100.00
59274;BME280;45044;41.572;24.730;2023-08-30T02:28:29;90584.44;;;15.07;100.00
59274;BME280;45044;41.572;24.730;2023-08-30T02:30:56;90593.38;;;15.13;100.00
59274;BME280;45044;41.572;24.730;2023-08-30T02:33:23;90581.47;;;15.05;100.00
59274;BME280;45044;41.572;24.730;2023-08-30T02:35:50;90575.34;;;15.08;100.00
59274;BME280;45044;41.572;24.730;2023-08-30T02:38:16;90578.56;;;14.86;100.00
59274;BME280;45044;41.572;24.730;2023-08-30T02:40:43;90570.78;;;14.95;100.00
59274;BME280;45044;41.572;24.730;2023-08-30T02:43:10;90576.06;;;14.95;100.00
59274;BME280;45044;41.572;24.730;2023-08-30T02:45:37;90572.91;;;15.01;100.00
59274;BME280;45044;41.572;24.730;2023-08-30T02:48:04;90575.72;;;14.93;100.00
59274;BME280;45044;41.572;24.730;2023-08-30T02:50:31;90572.34;;;14.93;100.00
59274;BME280;45044;41.572;24.730;2023-08-30T02:52:58;90574.41;;;14.85;100.00
59274;BME280;45044;41.572;24.730;2023-08-30T02:55:25;90571.78;;;14.85;100.00
59274;BME280;45044;41.572;24.730;2023-08-30T02:57:51;90563.19;;;14.81;100.00
59274;BME280;45044;41.572;24.730;2023-08-30T03:00:18;90557.53;;;14.49;100.00
59274;BME280;45044;41.572;24.730;2023-08-30T03:02:45;90563.72;;;14.59;100.00
59274;BME280;45044;41.572;24.730;2023-08-30T03:05:13;90562.78;;;14.66;100.00
59274;BME280;45044;41.572;24.730;2023-08-30T03:07:39;90570.22;;;14.71;100.00
59274;BME280;45044;41.572;24.730;2023-08-30T03:10:07;90566.28;;;14.63;100.00
59274;BME280;45044;41.572;24.730;2023-08-30T03:12:34;90573.28;;;14.69;100.00
59274;BME280;45044;41.572;24.730;2023-08-30T03:15:01;90575.94;;;14.69;100.00
59274;BME280;45044;41.572;24.730;2023-08-30T03:17:28;90564.16;;;14.70;100.00
59274;BME280;45044;41.572;24.730;2023-08-30T03:19:58;90541.56;;;14.53;100.00
59274;BME280;45044;41.572;24.730;2023-08-30T03:22:25;90572.44;;;14.72;100.00
59274;BME280;45044;41.572;24.730;2023-08-30T03:24:52;90573.59;;;14.71;100.00
59274;BME280;45044;41.572;24.730;2023-08-30T03:27:19;90573.53;;;14.75;100.00
59274;BME280;45044;41.572;24.730;2023-08-30T03:29:46;90580.78;;;14.71;100.00
59274;BME280;45044;41.572;24.730;2023-08-30T03:32:19;90582.22;;;14.59;100.00
59274;BME280;45044;41.572;24.730;2023-08-30T03:34:49;90582.16;;;14.46;100.00
59274;BME280;45044;41.572;24.730;2023-08-30T03:37:16;90575.94;;;14.53;100.00
59274;BME280;45044;41.572;24.730;2023-08-30T03:39:43;90579.75;;;14.52;100.00
59274;BME280;45044;41.572;24.730;2023-08-30T03:42:10;90580.50;;;14.52;100.00
59274;BME280;45044;41.572;24.730;2023-08-30T03:44:37;90581.06;;;14.60;100.00
59274;BME280;45044;41.572;24.730;2023-08-30T03:47:05;90585.22;;;14.61;100.00
59274;BME280;45044;41.572;24.730;2023-08-30T03:49:32;90584.03;;;14.62;100.00
59274;BME280;45044;41.572;24.730;2023-08-30T03:51:58;90593.78;;;14.65;100.00
59274;BME280;45044;41.572;24.730;2023-08-30T03:54:25;90589.59;;;14.51;100.00
59274;BME280;45044;41.572;24.730;2023-08-30T03:56:52;90588.84;;;14.51;100.00
59274;BME280;45044;41.572;24.730;2023-08-30T03:59:19;90594.63;;;14.29;100.00
59274;BME280;45044;41.572;24.730;2023-08-30T04:01:45;90600.34;;;14.44;100.00
59274;BME280;45044;41.572;24.730;2023-08-30T04:04:12;90592.56;;;14.53;100.00
59274;BME280;45044;41.572;24.730;2023-08-30T04:06:39;90593.31;;;14.54;100.00
59274;BME280;45044;41.572;24.730;2023-08-30T04:09:06;90599.28;;;14.41;100.00
59274;BME280;45044;41.572;24.730;2023-08-30T04:11:33;90591.16;;;14.48;100.00
59274;BME280;45044;41.572;24.730;2023-08-30T04:14:00;90590.59;;;14.57;100.00
59274;BME280;45044;41.572;24.730;2023-08-30T04:16:26;90594.88;;;14.34;100.00
59274;BME280;45044;41.572;24.730;2023-08-30T04:18:54;90580.78;;;14.08;100.00
59274;BME280;45044;41.572;24.730;2023-08-30T04:21:21;90598.63;;;14.20;100.00
59274;BME280;45044;41.572;24.730;2023-08-30T04:23:47;90607.09;;;14.45;100.00
59274;BME280;45044;41.572;24.730;2023-08-30T04:26:14;90617.31;;;14.76;100.00
59274;BME280;45044;41.572;24.730;2023-08-30T04:28:41;90615.19;;;14.88;100.00
59274;BME280;45044;41.572;24.730;2023-08-30T04:31:07;90616.38;;;15.00;100.00
59274;BME280;45044;41.572;24.730;2023-08-30T04:33:34;90620.97;;;15.12;100.00
59274;BME280;45044;41.572;24.730;2023-08-30T04:36:01;90611.72;;;15.20;100.00
59274;BME280;45044;41.572;24.730;2023-08-30T04:38:31;90612.81;;;14.60;100.00
59274;BME280;45044;41.572;24.730;2023-08-30T04:40:58;90623.78;;;14.58;100.00
59274;BME280;45044;41.572;24.730;2023-08-30T04:43:26;90627.66;;;14.70;100.00
59274;BME280;45044;41.572;24.730;2023-08-30T04:45:53;90624.75;;;14.98;100.00
59274;BME280;45044;41.572;24.730;2023-08-30T04:48:20;90631.09;;;15.30;100.00
59274;BME280;45044;41.572;24.730;2023-08-30T04:50:47;90630.31;;;15.47;100.00
59274;BME280;45044;41.572;24.730;2023-08-30T04:53:13;90631.06;;;15.60;100.00
59274;BME280;45044;41.572;24.730;2023-08-30T04:55:40;90634.50;;;15.74;100.00
59274;BME280;45044;41.572;24.730;2023-08-30T04:58:07;90637.25;;;15.83;100.00
59274;BME280;45044;41.572;24.730;2023-08-30T05:00:35;90635.59;;;16.02;100.00
59274;BME280;45044;41.572;24.730;2023-08-30T05:03:02;90632.22;;;16.15;100.00
59274;BME280;45044;41.572;24.730;2023-08-30T05:05:29;90629.56;;;16.28;100.00
59274;BME280;45044;41.572;24.730;2023-08-30T05:07:56;90634.00;;;16.05;100.00
59274;BME280;45044;41.572;24.730;2023-08-30T05:10:23;90628.59;;;16.35;100.00
59274;BME280;45044;41.572;24.730;2023-08-30T05:12:49;90628.69;;;16.44;100.00
59274;BME280;45044;41.572;24.730;2023-08-30T05:15:18;90629.84;;;16.56;100.00
59274;BME280;45044;41.572;24.730;2023-08-30T05:17:45;90631.84;;;17.14;100.00
59274;BME280;45044;41.572;24.730;2023-08-30T05:20:13;90630.38;;;17.89;100.00
59274;BME280;45044;41.572;24.730;2023-08-30T05:22:39;90634.44;;;19.42;100.00
59274;BME280;45044;41.572;24.730;2023-08-30T05:25:06;90629.97;;;19.58;100.00
59274;BME280;45044;41.572;24.730;2023-08-30T05:27:33;90627.16;;;20.14;100.00
59274;BME280;45044;41.572;24.730;2023-08-30T05:30:00;90629.47;;;21.14;100.00
59274;BME280;45044;41.572;24.730;2023-08-30T05:32:27;90625.72;;;22.21;100.00
59274;BME280;45044;41.572;24.730;2023-08-30T05:34:54;90622.56;;;23.15;100.00
59274;BME280;45044;41.572;24.730;2023-08-30T05:37:21;90626.50;;;23.94;100.00
59274;BME280;45044;41.572;24.730;2023-08-30T05:39:48;90626.00;;;24.55;100.00
59274;BME280;45044;41.572;24.730;2023-08-30T05:42:15;90621.44;;;25.16;100.00
59274;BME280;45044;41.572;24.730;2023-08-30T05:44:41;90624.78;;;25.83;94.15
59274;BME280;45044;41.572;24.730;2023-08-30T05:47:08;90625.56;;;26.41;87.72
59274;BME280;45044;41.572;24.730;2023-08-30T05:49:41;90613.44;;;27.00;80.03
59274;BME280;45044;41.572;24.730;2023-08-30T05:52:07;90623.44;;;27.70;73.12
59274;BME280;45044;41.572;24.730;2023-08-30T05:54:35;90627.19;;;28.34;68.19
59274;BME280;45044;41.572;24.730;2023-08-30T05:57:01;90628.03;;;28.54;66.58
59274;BME280;45044;41.572;24.730;2023-08-30T05:59:28;90627.97;;;28.29;66.61
59274;BME280;45044;41.572;24.730;2023-08-30T06:01:55;90623.75;;;28.40;66.28
59274;BME280;45044;41.572;24.730;2023-08-30T06:04:22;90618.47;;;28.78;64.82
59274;BME280;45044;41.572;24.730;2023-08-30T06:06:49;90616.09;;;29.58;59.17
59274;BME280;45044;41.572;24.730;2023-08-30T06:09:15;90620.97;;;29.84;54.44
59274;BME280;45044;41.572;24.730;2023-08-30T06:11:43;90613.47;;;30.56;54.38
59274;BME280;45044;41.572;24.730;2023-08-30T06:14:10;90618.09;;;31.29;50.83
59274;BME280;45044;41.572;24.730;2023-08-30T06:16:37;90614.53;;;31.35;51.26
59274;BME280;45044;41.572;24.730;2023-08-30T06:19:04;90612.84;;;30.64;52.40
59274;BME280;45044;41.572;24.730;2023-08-30T06:21:30;90618.19;;;31.51;49.36
59274;BME280;45044;41.572;24.730;2023-08-30T06:23:57;90621.00;;;30.77;50.55
59274;BME280;45044;41.572;24.730;2023-08-30T06:26:24;90622.66;;;30.20;49.86
59274;BME280;45044;41.572;24.730;2023-08-30T06:28:51;90627.81;;;30.98;49.16
59274;BME280;45044;41.572;24.730;2023-08-30T06:31:30;90623.81;;;32.23;44.45
59274;BME280;45044;41.572;24.730;2023-08-30T06:33:59;90621.50;;;33.28;43.83
59274;BME280;45044;41.572;24.730;2023-08-30T06:36:26;90618.31;;;33.98;42.37
59274;BME280;45044;41.572;24.730;2023-08-30T06:38:52;90622.56;;;34.31;41.38
59274;BME280;45044;41.572;24.730;2023-08-30T06:41:19;90617.28;;;34.95;39.83
59274;BME280;45044;41.572;24.730;2023-08-30T06:43:46;90623.72;;;35.55;40.15
59274;BME280;45044;41.572;24.730;2023-08-30T06:46:13;90614.69;;;35.86;39.17
59274;BME280;45044;41.572;24.730;2023-08-30T06:48:40;90615.00;;;36.31;39.01
59274;BME280;45044;41.572;24.730;2023-08-30T06:51:07;90612.50;;;36.68;37.57
59274;BME280;45044;41.572;24.730;2023-08-30T06:53:33;90619.44;;;35.85;38.36
59274;BME280;45044;41.572;24.730;2023-08-30T06:56:00;90620.88;;;33.14;43.65
59274;BME280;45044;41.572;24.730;2023-08-30T06:58:28;90626.50;;;32.36;44.48
59274;BME280;45044;41.572;24.730;2023-08-30T07:00:56;90619.88;;;31.27;46.52
59274;BME280;45044;41.572;24.730;2023-08-30T07:03:23;90624.00;;;29.94;50.01
59274;BME280;45044;41.572;24.730;2023-08-30T07:05:53;90622.63;;;29.68;51.22
59274;BME280;45044;41.572;24.730;2023-08-30T07:08:20;90626.91;;;28.69;50.85
59274;BME280;45044;41.572;24.730;2023-08-30T07:10:46;90617.72;;;30.52;49.45
59274;BME280;45044;41.572;24.730;2023-08-30T07:13:13;90625.41;;;31.83;47.50
59274;BME280;45044;41.572;24.730;2023-08-30T07:15:41;90617.81;;;31.68;48.24
59274;BME280;45044;41.572;24.730;2023-08-30T07:18:09;90621.88;;;33.32;47.22
59274;BME280;45044;41.572;24.730;2023-08-30T07:20:38;90618.66;;;33.87;43.79
59274;BME280;45044;41.572;24.730;2023-08-30T07:23:05;90619.06;;;33.54;42.91
59274;BME280;45044;41.572;24.730;2023-08-30T07:25:37;90619.41;;;34.03;42.93
59274;BME280;45044;41.572;24.730;2023-08-30T07:28:05;90617.59;;;35.39;40.17
59274;BME280;45044;41.572;24.730;2023-08-30T07:30:32;90617.03;;;35.89;40.21
59274;BME280;45044;41.572;24.730;2023-08-30T07:33:01;90619.50;;;36.87;38.57
59274;BME280;45044;41.572;24.730;2023-08-30T07:35:31;90621.75;;;35.96;38.13
59274;BME280;45044;41.572;24.730;2023-08-30T07:37:59;90623.13;;;34.68;40.95
59274;BME280;45044;41.572;24.730;2023-08-30T07:40:26;90624.94;;;34.42;40.76
59274;BME280;45044;41.572;24.730;2023-08-30T07:42:55;90621.59;;;35.30;41.10
59274;BME280;45044;41.572;24.730;2023-08-30T07:45:25;90612.03;;;34.58;42.16
59274;BME280;45044;41.572;24.730;2023-08-30T07:47:52;90618.31;;;36.22;38.95
59274;BME280;45044;41.572;24.730;2023-08-30T07:50:18;90619.69;;;33.68;40.72
59274;BME280;45044;41.572;24.730;2023-08-30T07:52:45;90621.69;;;34.91;41.12
59274;BME280;45044;41.572;24.730;2023-08-30T07:55:13;90621.38;;;33.42;41.64
59274;BME280;45044;41.572;24.730;2023-08-30T07:57:40;90618.13;;;33.96;42.72
59274;BME280;45044;41.572;24.730;2023-08-30T08:00:07;90616.75;;;33.21;43.78
59274;BME280;45044;41.572;24.730;2023-08-30T08:02:35;90622.56;;;32.67;43.19
59274;BME280;45044;41.572;24.730;2023-08-30T08:05:02;90614.31;;;33.39;41.70
59274;BME280;45044;41.572;24.730;2023-08-30T08:07:28;90619.69;;;34.83;39.44
59274;BME280;45044;41.572;24.730;2023-08-30T08:09:56;90622.75;;;34.25;41.04
59274;BME280;45044;41.572;24.730;2023-08-30T08:12:23;90627.28;;;32.95;41.33
59274;BME280;45044;41.572;24.730;2023-08-30T08:14:51;90618.63;;;33.05;41.90
59274;BME280;45044;41.572;24.730;2023-08-30T08:17:17;90630.06;;;33.32;41.43
59274;BME280;45044;41.572;24.730;2023-08-30T08:19:44;90622.94;;;35.05;38.99
59274;BME280;45044;41.572;24.730;2023-08-30T08:22:11;90619.84;;;34.46;40.26
59274;BME280;45044;41.572;24.730;2023-08-30T08:24:38;90621.13;;;34.61;39.64
59274;BME280;45044;41.572;24.730;2023-08-30T08:27:05;90613.19;;;33.71;39.49
59274;BME280;45044;41.572;24.730;2023-08-30T08:29:32;90618.97;;;33.01;41.04
59274;BME280;45044;41.572;24.730;2023-08-30T08:31:59;90611.88;;;33.27;41.54
59274;BME280;45044;41.572;24.730;2023-08-30T08:34:26;90616.72;;;34.11;39.13
59274;BME280;45044;41.572;24.730;2023-08-30T08:36:53;90629.03;;;33.43;41.57
59274;BME280;45044;41.572;24.730;2023-08-30T08:39:20;90628.25;;;33.72;41.46
59274;BME280;45044;41.572;24.730;2023-08-30T08:41:47;90619.84;;;34.46;40.63
59274;BME280;45044;41.572;24.730;2023-08-30T08:44:15;90612.81;;;35.55;40.52
59274;BME280;45044;41.572;24.730;2023-08-30T08:46:42;90611.31;;;36.36;37.82
59274;BME280;45044;41.572;24.730;2023-08-30T08:49:14;90613.03;;;36.49;37.88
59274;BME280;45044;41.572;24.730;2023-08-30T08:51:42;90611.22;;;35.85;39.22
59274;BME280;45044;41.572;24.730;2023-08-30T08:54:11;90601.81;;;36.37;36.72
59274;BME280;45044;41.572;24.730;2023-08-30T08:56:39;90611.50;;;34.75;39.27
59274;BME280;45044;41.572;24.730;2023-08-30T08:59:06;90603.13;;;34.50;41.61
59274;BME280;45044;41.572;24.730;2023-08-30T09:01:36;90602.03;;;34.22;40.59
59274;BME280;45044;41.572;24.730;2023-08-30T09:04:08;90596.22;;;34.41;42.00
59274;BME280;45044;41.572;24.730;2023-08-30T09:06:36;90591.66;;;34.36;39.52
59274;BME280;45044;41.572;24.730;2023-08-30T09:09:04;90600.34;;;33.50;42.99
59274;BME280;45044;41.572;24.730;2023-08-30T09:11:32;90608.34;;;33.48;42.14
59274;BME280;45044;41.572;24.730;2023-08-30T09:14:01;90598.44;;;32.92;41.83
59274;BME280;45044;41.572;24.730;2023-08-30T09:16:29;90594.88;;;32.25;43.82
59274;BME280;45044;41.572;24.730;2023-08-30T09:19:03;90597.81;;;31.92;44.70
59274;BME280;45044;41.572;24.730;2023-08-30T09:21:36;90598.00;;;30.84;46.20
59274;BME280;45044;41.572;24.730;2023-08-30T09:24:06;90601.47;;;30.52;49.80
59274;BME280;45044;41.572;24.730;2023-08-30T09:26:34;90603.28;;;30.76;48.63
59274;BME280;45044;41.572;24.730;2023-08-30T09:29:08;90594.22;;;30.87;47.88
59274;BME280;45044;41.572;24.730;2023-08-30T09:31:35;90598.19;;;31.00;49.20
59274;BME280;45044;41.572;24.730;2023-08-30T09:34:04;90593.81;;;30.96;51.62
59274;BME280;45044;41.572;24.730;2023-08-30T09:36:35;90600.28;;;30.93;53.83
59274;BME280;45044;41.572;24.730;2023-08-30T09:39:14;90594.88;;;30.93;52.14
59274;BME280;45044;41.572;24.730;2023-08-30T09:41:45;90598.34;;;30.61;53.22
59274;BME280;45044;41.572;24.730;2023-08-30T09:44:14;90597.31;;;30.64;55.02
59274;BME280;45044;41.572;24.730;2023-08-30T09:46:45;90586.16;;;30.68;52.58
59274;BME280;45044;41.572;24.730;2023-08-30T09:49:18;90590.28;;;30.28;53.99
59274;BME280;45044;41.572;24.730;2023-08-30T09:51:46;90590.22;;;29.82;56.80
59274;BME280;45044;41.572;24.730;2023-08-30T09:54:18;90590.06;;;29.74;56.37
59274;BME280;45044;41.572;24.730;2023-08-30T09:57:05;90572.16;;;29.51;60.42
59274;BME280;45044;41.572;24.730;2023-08-30T09:59:32;90582.47;;;29.14;69.25
59274;BME280;45044;41.572;24.730;2023-08-30T10:02:00;90591.88;;;28.57;68.17
59274;BME280;45044;41.572;24.730;2023-08-30T10:04:28;90599.16;;;27.70;71.47
59274;BME280;45044;41.572;24.730;2023-08-30T10:06:56;90593.59;;;27.57;67.43
59274;BME280;45044;41.572;24.730;2023-08-30T10:09:24;90588.00;;;27.43;67.79
59274;BME280;45044;41.572;24.730;2023-08-30T10:11:52;90597.50;;;27.02;65.31
59274;BME280;45044;41.572;24.730;2023-08-30T10:14:19;90592.06;;;27.73;75.61
59274;BME280;45044;41.572;24.730;2023-08-30T10:16:48;90591.41;;;27.55;67.69
59274;BME280;45044;41.572;24.730;2023-08-30T10:19:24;90599.34;;;27.84;67.74
59274;BME280;45044;41.572;24.730;2023-08-30T10:24:34;90590.22;;;27.87;74.61
59274;BME280;45044;41.572;24.730;2023-08-30T10:27:14;90595.41;;;28.16;68.19
59274;BME280;45044;41.572;24.730;2023-08-30T10:29:43;90603.66;;;28.29;75.22
59274;BME280;45044;41.572;24.730;2023-08-30T10:32:11;90601.34;;;28.08;72.69
59274;BME280;45044;41.572;24.730;2023-08-30T10:34:38;90598.38;;;28.12;80.39
59274;BME280;45044;41.572;24.730;2023-08-30T10:37:10;90595.56;;;27.56;81.53
59274;BME280;45044;41.572;24.730;2023-08-30T10:39:40;90594.50;;;27.23;90.72
59274;BME280;45044;41.572;24.730;2023-08-30T10:42:14;90592.25;;;26.33;100.00
59274;BME280;45044;41.572;24.730;2023-08-30T10:44:52;90594.13;;;26.84;100.00
59274;BME280;45044;41.572;24.730;2023-08-30T10:47:41;90601.91;;;27.11;100.00
59274;BME280;45044;41.572;24.730;2023-08-30T10:50:10;90606.28;;;27.68;100.00
59274;BME280;45044;41.572;24.730;2023-08-30T10:52:37;90608.66;;;28.19;98.96
59274;BME280;45044;41.572;24.730;2023-08-30T10:55:11;90601.22;;;28.81;96.07
59274;BME280;45044;41.572;24.730;2023-08-30T10:57:42;90607.88;;;29.05;83.21
59274;BME280;45044;41.572;24.730;2023-08-30T11:00:20;90595.47;;;29.16;58.74
59274;BME280;45044;41.572;24.730;2023-08-30T11:02:49;90584.66;;;29.35;58.06
59274;BME280;45044;41.572;24.730;2023-08-30T11:05:20;90611.94;;;29.37;62.15
59274;BME280;45044;41.572;24.730;2023-08-30T11:07:47;90611.53;;;28.27;58.91
59274;BME280;45044;41.572;24.730;2023-08-30T11:10:17;90609.91;;;28.49;60.70
59274;BME280;45044;41.572;24.730;2023-08-30T11:12:45;90603.69;;;27.93;62.36
59274;BME280;45044;41.572;24.730;2023-08-30T11:15:18;90613.88;;;28.12;63.31
59274;BME280;45044;41.572;24.730;2023-08-30T11:17:45;90602.56;;;28.94;64.21
59274;BME280;45044;41.572;24.730;2023-08-30T11:20:16;90614.91;;;28.33;65.88
59274;BME280;45044;41.572;24.730;2023-08-30T11:22:48;90607.81;;;28.30;63.34
59274;BME280;45044;41.572;24.730;2023-08-30T11:25:16;90599.56;;;28.78;62.90
59274;BME280;45044;41.572;24.730;2023-08-30T11:27:43;90608.53;;;28.37;65.41
59274;BME280;45044;41.572;24.730;2023-08-30T11:30:11;90605.13;;;28.30;68.62
59274;BME280;45044;41.572;24.730;2023-08-30T11:32:41;90593.56;;;28.86;66.93
59274;BME280;45044;41.572;24.730;2023-08-30T11:35:10;90598.72;;;29.53;66.90
59274;BME280;45044;41.572;24.730;2023-08-30T11:37:37;90594.75;;;29.35;59.49
59274;BME280;45044;41.572;24.730;2023-08-30T11:40:04;90588.97;;;28.80;61.65
59274;BME280;45044;41.572;24.730;2023-08-30T11:42:37;90591.53;;;28.92;63.75
59274;BME280;45044;41.572;24.730;2023-08-30T11:45:05;90576.31;;;29.14;67.76
59274;BME280;45044;41.572;24.730;2023-08-30T11:47:32;90588.44;;;28.82;62.22
59274;BME280;45044;41.572;24.730;2023-08-30T11:50:00;90584.72;;;28.04;69.07
59274;BME280;45044;41.572;24.730;2023-08-30T11:52:28;90591.75;;;28.13;69.54
59274;BME280;45044;41.572;24.730;2023-08-30T11:54:56;90599.00;;;28.30;70.57
59274;BME280;45044;41.572;24.730;2023-08-30T11:57:22;90593.03;;;28.37;63.94
59274;BME280;45044;41.572;24.730;2023-08-30T11:59:49;90581.56;;;28.00;62.37
59274;BME280;45044;41.572;24.730;2023-08-30T12:02:18;90597.06;;;28.25;62.54
59274;BME280;45044;41.572;24.730;2023-08-30T12:04:46;90593.97;;;28.45;61.82
59274;BME280;45044;41.572;24.730;2023-08-30T12:07:24;90583.97;;;28.34;60.76
59274;BME280;45044;41.572;24.730;2023-08-30T12:09:51;90583.66;;;28.69;64.47
59274;BME280;45044;41.572;24.730;2023-08-30T12:12:18;90594.88;;;28.23;71.91
59274;BME280;45044;41.572;24.730;2023-08-30T12:14:54;90591.59;;;28.36;70.38
59274;BME280;45044;41.572;24.730;2023-08-30T12:17:21;90572.97;;;28.83;64.19
59274;BME280;45044;41.572;24.730;2023-08-30T12:19:58;90567.88;;;28.98;64.72
59274;BME280;45044;41.572;24.730;2023-08-30T12:22:38;90562.47;;;29.75;60.18
59274;BME280;45044;41.572;24.730;2023-08-30T12:25:21;90579.63;;;29.97;59.37
59274;BME280;45044;41.572;24.730;2023-08-30T12:27:50;90586.91;;;28.87;57.99
59274;BME280;45044;41.572;24.730;2023-08-30T12:30:17;90585.97;;;28.59;58.69
59274;BME280;45044;41.572;24.730;2023-08-30T12:32:47;90574.53;;;28.47;57.48
59274;BME280;45044;41.572;24.730;2023-08-30T12:35:15;90568.47;;;29.10;59.25
59274;BME280;45044;41.572;24.730;2023-08-30T12:37:42;90566.59;;;29.24;59.62
59274;BME280;45044;41.572;24.730;2023-08-30T12:40:10;90570.25;;;29.08;62.77
59274;BME280;45044;41.572;24.730;2023-08-30T12:55:25;90583.06;;;29.65;55.41
59274;BME280;45044;41.572;24.730;2023-08-30T12:57:53;90571.41;;;29.12;57.56
59274;BME280;45044;41.572;24.730;2023-08-30T13:00:21;90580.56;;;28.28;62.67
59274;BME280;45044;41.572;24.730;2023-08-30T13:02:48;90579.75;;;28.39;65.15
59274;BME280;45044;41.572;24.730;2023-08-30T13:05:15;90576.69;;;28.54;68.09
59274;BME280;45044;41.572;24.730;2023-08-30T13:07:42;90566.09;;;28.56;64.39
59274;BME280;45044;41.572;24.730;2023-08-30T13:10:10;90568.78;;;28.81;68.87